Juneau, AK

11:06 AM AKDT on October 30, 2014 (GMT -0800)
Juneau International | Change Station
CLOSE
Current Station
Airport
Location: Juneau,
Elevation: 23 ft
Nearby Weather Stations

Elev 23 ft 58.35 °N, 134.58 °W | Updated 13 minutes ago

Light Rain
Light Rain Mist
43 °F
Feels Like 43 °F
N
0
Wind Variable Wind from North

Today
High -- | Low -- °F
--% Chance of Precip.
Yesterday
High -- | Low -- °F
Precip. -- in
8:09 AM 5:13 PM
Waxing Crescent, 46% visible
Pressure 29.47 in
Visibility 6.0 miles
Clouds Mostly Cloudy 3300 ft
Overcast 4600 ft
Dew Point 41 °F
Humidity 93%
Rainfall 0.20 in
Snow Depth Not available.
UV 0 out of 12
Pollen Not available.
Air Quality Not available.
Flu Activity Not available.
METAR PAJN 301853Z 00000KT 6SM -RA BR BKN033 OVC046 06/05 A2947 RMK AO2 SLP978 P0006 T00610050

More Conditions Fewer Conditions

Pressure 29.47 in
Visibility 6.0 miles
Clouds Mostly Cloudy 3300 ft
Overcast 4600 ft
Dew Point 41 °F
Humidity 93%
Rainfall 0.20 in
Snow Depth Not available.
UV 0 out of 12
Pollen Not available.
Air Quality Not available.
Flu Activity Not available.
METAR PAJN 301853Z 00000KT 6SM -RA BR BKN033 OVC046 06/05 A2947 RMK AO2 SLP978 P0006 T00610050

More Conditions Fewer Conditions

10-Day Weather Forecast

Almanac

Astronomy

Oct. 30, 2014 Rise Set
Actual Time
Civil Twilight
Nautical Twilight
Astronomical Twilight
Moon
Length of Visible Light
Length of Day
Tomorrow will be .
, % of the Moon is Illuminated

Today's Extremes

State Highs State Lows

Community

WunderPhotos

Upload Photos

1,766,439 photos uploaded!

WunderBlogs® & News

Nearby

Air Quality

  Air Quality AQ Index Pollutant
Not available.

Snow Depth

Station Depth Elevation

Earthquake Activity

City Distance Mag. Time & Date
Minimum magnitude displayed is 2.5.

Coastal Water Temperatures

Place Temperature

Nearby Weather Stations